Time;durP1;ratioP1;P1;durP2;ratioP2;P2;SDS_P1;SDS_P2;PMS_P1;PMS_P2;Temp;Humidity;BMP_temperature;BMP_pressure;BME280_temperature;BME280_humidity;BME280_pressure;Samples;Min_cycle;Max_cycle;Signal;HPM_P1;HPM_P2
2021/11/24 00:01:24;;;;;;;12.75;8.63;;;6.40;99.90;;;;;;5022843;28;20116;-65
2021/11/24 00:03:49;;;;;;;11.02;7.85;;;6.40;99.90;;;;;;5018394;28;20652;-65
2021/11/24 00:06:15;;;;;;;11.65;8.23;;;6.40;99.90;;;;;;5017937;28;20044;-65
2021/11/24 00:08:41;;;;;;;14.85;8.43;;;6.40;99.90;;;;;;5009051;28;20454;-66
2021/11/24 00:11:06;;;;;;;17.15;9.68;;;6.40;99.90;;;;;;5019517;28;20489;-65
2021/11/24 00:13:32;;;;;;;12.45;8.00;;;6.40;99.90;;;;;;5006961;28;20042;-65
2021/11/24 00:15:58;;;;;;;11.80;6.95;;;6.40;99.90;;;;;;5017194;28;20076;-65
2021/11/24 00:18:23;;;;;;;9.82;6.05;;;6.40;99.90;;;;;;5024952;28;20498;-65
2021/11/24 00:20:49;;;;;;;11.32;7.25;;;6.40;99.90;;;;;;5019715;28;20116;-65
2021/11/24 00:23:15;;;;;;;11.98;8.68;;;6.40;99.90;;;;;;5023221;28;20034;-64
2021/11/24 00:25:41;;;;;;;10.70;6.70;;;6.40;99.90;;;;;;5002169;28;20560;-65
2021/11/24 00:28:07;;;;;;;11.35;6.85;;;6.40;99.90;;;;;;5004624;28;20049;-64
2021/11/24 00:30:33;;;;;;;8.73;6.85;;;6.40;99.90;;;;;;5020137;28;20033;-65
2021/11/24 00:33:00;;;;;;;8.90;6.43;;;6.40;99.90;;;;;;5022851;28;20123;-64
2021/11/24 00:35:25;;;;;;;13.77;7.82;;;6.50;99.90;;;;;;5023059;28;20025;-64
2021/11/24 00:37:51;;;;;;;10.13;6.78;;;6.50;99.90;;;;;;5021907;28;20044;-64
2021/11/24 00:40:17;;;;;;;7.45;6.40;;;6.50;99.90;;;;;;5024583;28;20037;-64
2021/11/24 00:42:43;;;;;;;11.15;8.00;;;6.50;99.90;;;;;;5017684;28;20092;-64
2021/11/24 00:45:09;;;;;;;9.07;6.75;;;6.50;99.90;;;;;;5025458;28;20044;-64
2021/11/24 00:47:35;;;;;;;12.73;5.75;;;6.50;99.90;;;;;;5002239;28;20053;-64
2021/11/24 00:50:00;;;;;;;12.55;6.28;;;6.50;99.90;;;;;;5023600;28;20080;-64
2021/11/24 00:52:28;;;;;;;7.28;5.55;;;6.50;99.90;;;;;;5019536;28;20053;-64
2021/11/24 00:54:54;;;;;;;11.85;6.03;;;6.60;99.90;;;;;;5024334;28;20041;-64
2021/11/24 00:57:20;;;;;;;8.07;6.05;;;6.50;99.90;;;;;;5018187;28;20037;-64
2021/11/24 00:59:46;;;;;;;9.50;6.03;;;6.60;99.90;;;;;;5026324;28;20026;-64
2021/11/24 01:02:12;;;;;;;7.55;5.72;;;6.50;99.90;;;;;;5019349;28;20037;-64
2021/11/24 01:04:37;;;;;;;10.45;6.13;;;6.60;99.90;;;;;;5008639;28;20076;-64
2021/11/24 01:07:03;;;;;;;18.10;8.95;;;6.60;99.90;;;;;;5018213;28;20038;-65
2021/11/24 01:09:29;;;;;;;7.22;5.60;;;6.60;99.90;;;;;;5030142;28;20071;-65
2021/11/24 01:11:55;;;;;;;7.25;5.68;;;6.60;99.90;;;;;;5022436;28;20064;-65
2021/11/24 01:14:21;;;;;;;8.20;4.93;;;6.60;99.90;;;;;;5024087;28;20111;-65
2021/11/24 01:16:46;;;;;;;8.45;5.35;;;6.70;99.90;;;;;;5028553;28;20065;-65
2021/11/24 01:19:12;;;;;;;7.65;5.07;;;6.70;99.90;;;;;;5024220;28;20439;-65
2021/11/24 01:21:38;;;;;;;9.00;5.75;;;6.70;99.90;;;;;;5025608;28;20124;-65
2021/11/24 01:24:04;;;;;;;7.40;4.53;;;6.70;99.90;;;;;;5017488;28;20037;-65
2021/11/24 01:26:30;;;;;;;15.20;5.45;;;6.70;99.90;;;;;;5025424;28;20113;-65
2021/11/24 01:28:56;;;;;;;8.10;4.95;;;6.70;99.90;;;;;;5022951;28;20120;-65
2021/11/24 01:31:22;;;;;;;10.05;5.18;;;6.70;99.90;;;;;;5009665;28;20124;-65
2021/11/24 01:33:48;;;;;;;9.65;4.85;;;6.70;99.90;;;;;;5022905;28;20469;-65
2021/11/24 01:36:14;;;;;;;8.30;5.55;;;6.80;99.90;;;;;;5009885;28;20171;-65
2021/11/24 01:38:39;;;;;;;6.90;4.70;;;6.70;99.90;;;;;;5017196;28;20927;-65
2021/11/24 01:41:05;;;;;;;7.03;5.00;;;6.70;99.90;;;;;;5026526;28;20033;-64
2021/11/24 01:43:31;;;;;;;8.10;5.47;;;6.70;99.90;;;;;;5019372;28;20073;-65
2021/11/24 01:45:57;;;;;;;9.63;5.55;;;6.70;99.90;;;;;;5011784;28;20084;-65
2021/11/24 01:48:27;;;;;;;9.15;4.05;;;6.70;99.90;;;;;;5021089;28;20045;-65
2021/11/24 01:50:53;;;;;;;9.55;4.88;;;6.70;99.90;;;;;;5028147;28;20540;-65
2021/11/24 01:53:18;;;;;;;9.18;4.90;;;6.70;99.90;;;;;;5027275;28;20041;-65
2021/11/24 01:55:44;;;;;;;8.93;4.10;;;6.70;99.90;;;;;;5023051;28;20080;-65
2021/11/24 01:58:10;;;;;;;8.02;4.28;;;6.70;99.90;;;;;;5025638;28;20047;-65
2021/11/24 02:00:36;;;;;;;8.80;4.80;;;6.70;99.90;;;;;;5023904;28;20187;-65
2021/11/24 02:03:04;;;;;;;5.18;3.92;;;6.80;99.90;;;;;;5027884;28;20436;-65
2021/11/24 02:05:29;;;;;;;8.27;3.75;;;6.80;99.90;;;;;;5021816;28;20421;-65
2021/11/24 02:07:55;;;;;;;13.43;5.05;;;6.70;99.90;;;;;;5025648;28;20045;-65
2021/11/24 02:10:22;;;;;;;10.05;4.72;;;6.70;99.90;;;;;;5003280;28;20434;-65
2021/11/24 02:12:49;;;;;;;6.03;3.92;;;6.70;99.90;;;;;;5024647;28;20147;-65
2021/11/24 02:15:15;;;;;;;8.57;4.15;;;6.70;99.90;;;;;;5020189;28;20044;-65
2021/11/24 02:17:42;;;;;;;6.15;3.67;;;6.70;99.90;;;;;;5020788;28;20151;-65
2021/11/24 02:20:35;;;;;;;6.90;3.92;;;6.70;99.90;;;;;;5007032;28;20046;-65
2021/11/24 02:23:02;;;;;;;8.00;3.75;;;6.80;99.90;;;;;;5017144;28;20038;-66
2021/11/24 02:25:27;;;;;;;7.65;4.72;;;6.70;99.90;;;;;;5021053;28;20041;-65
2021/11/24 02:27:53;;;;;;;7.80;3.70;;;6.70;99.90;;;;;;5027443;28;20034;-65
2021/11/24 02:30:19;;;;;;;8.90;3.90;;;6.70;99.90;;;;;;5024040;28;20037;-65
2021/11/24 02:32:44;;;;;;;8.13;4.40;;;6.70;99.90;;;;;;5026894;28;20165;-65
2021/11/24 02:35:10;;;;;;;5.43;3.40;;;6.70;99.90;;;;;;5019209;28;20041;-65
2021/11/24 02:37:36;;;;;;;9.65;4.15;;;6.70;99.90;;;;;;5026941;28;20470;-65
2021/11/24 02:40:03;;;;;;;8.38;3.95;;;6.70;99.90;;;;;;5025888;28;20040;-65
2021/11/24 02:42:29;;;;;;;5.53;3.65;;;6.70;99.90;;;;;;5020678;28;20068;-65
2021/11/24 02:44:56;;;;;;;6.50;4.22;;;6.70;99.90;;;;;;5027754;28;20095;-65
2021/11/24 02:47:22;;;;;;;5.22;4.05;;;6.70;99.90;;;;;;5005470;28;20045;-65
2021/11/24 02:49:51;;;;;;;5.10;3.95;;;6.70;99.90;;;;;;5022743;28;20371;-65
2021/11/24 02:52:20;;;;;;;5.20;4.13;;;6.70;99.90;;;;;;5019769;28;20033;-65
2021/11/24 02:54:57;;;;;;;7.32;4.53;;;6.70;99.90;;;;;;5024264;28;20054;-65
2021/11/24 02:57:55;;;;;;;5.65;3.67;;;6.70;99.90;;;;;;5021181;28;20034;-65
2021/11/24 03:00:25;;;;;;;5.80;3.88;;;6.70;99.90;;;;;;4985263;28;20050;-65
2021/11/24 03:02:51;;;;;;;5.30;3.90;;;6.70;99.90;;;;;;5019007;28;20037;-65
2021/11/24 03:05:21;;;;;;;10.60;5.43;;;6.70;99.90;;;;;;5023839;28;20377;-65
2021/11/24 03:07:47;;;;;;;5.22;3.70;;;6.70;99.90;;;;;;5000151;28;20045;-65
2021/11/24 03:10:14;;;;;;;5.55;3.40;;;6.70;99.90;;;;;;5023200;28;20044;-65
2021/11/24 03:12:40;;;;;;;8.07;4.32;;;6.70;99.90;;;;;;5018374;28;20060;-65
2021/11/24 03:15:07;;;;;;;5.32;3.92;;;6.70;99.90;;;;;;5024916;28;20042;-65
2021/11/24 03:17:33;;;;;;;7.70;4.05;;;6.70;99.90;;;;;;5021771;28;20592;-65
2021/11/24 03:19:59;;;;;;;6.28;4.15;;;6.70;99.90;;;;;;5025190;28;20116;-65
2021/11/24 03:22:26;;;;;;;6.30;4.10;;;6.70;99.90;;;;;;5020892;28;20476;-65
2021/11/24 03:24:56;;;;;;;4.90;3.63;;;6.70;99.90;;;;;;5023462;28;20041;-65
2021/11/24 03:27:31;;;;;;;7.28;4.03;;;6.60;99.90;;;;;;5018091;28;20044;-65
2021/11/24 03:29:58;;;;;;;6.78;3.75;;;6.70;99.90;;;;;;5026048;28;20116;-65
2021/11/24 03:32:25;;;;;;;9.75;4.30;;;6.70;99.90;;;;;;5001068;28;20045;-65
2021/11/24 03:34:51;;;;;;;5.13;3.92;;;6.60;99.90;;;;;;5008573;28;20049;-65
2021/11/24 03:37:17;;;;;;;4.78;3.45;;;6.70;99.90;;;;;;5023732;28;20034;-65
2021/11/24 03:39:44;;;;;;;4.88;3.30;;;6.70;99.90;;;;;;5016981;28;20406;-65
2021/11/24 03:42:11;;;;;;;5.70;3.75;;;6.70;99.90;;;;;;5026694;28;20257;-65
2021/11/24 03:44:36;;;;;;;5.03;3.40;;;6.70;99.90;;;;;;5004229;28;20124;-65
2021/11/24 03:47:02;;;;;;;7.82;3.72;;;6.70;99.90;;;;;;5025513;28;20452;-65
2021/11/24 03:49:28;;;;;;;4.68;3.15;;;6.70;99.90;;;;;;5020381;28;20059;-66
2021/11/24 03:51:54;;;;;;;9.45;4.55;;;6.70;99.90;;;;;;5021542;28;20033;-63
2021/11/24 03:54:20;;;;;;;5.03;3.70;;;6.70;99.90;;;;;;5020840;28;20040;-63
2021/11/24 03:56:46;;;;;;;6.45;3.97;;;6.70;99.90;;;;;;5025151;28;20073;-63
2021/11/24 03:59:11;;;;;;;9.05;4.45;;;6.70;99.90;;;;;;5017027;28;20033;-63
2021/11/24 04:01:37;;;;;;;7.20;3.90;;;6.70;99.90;;;;;;5024101;28;20592;-64
2021/11/24 04:04:03;;;;;;;5.38;3.83;;;6.70;99.90;;;;;;5002076;28;20401;-64
2021/11/24 04:06:29;;;;;;;5.28;3.72;;;6.70;99.90;;;;;;5024115;28;20033;-64
2021/11/24 04:08:56;;;;;;;4.57;3.55;;;6.70;99.90;;;;;;5021325;28;20048;-64
2021/11/24 04:11:21;;;;;;;8.02;4.38;;;6.70;99.90;;;;;;5021863;28;20104;-64
2021/11/24 04:13:47;;;;;;;5.13;4.00;;;6.70;99.90;;;;;;5020072;28;20042;-64
2021/11/24 04:16:13;;;;;;;9.32;3.75;;;6.70;99.90;;;;;;5019450;28;20379;-64
2021/11/24 04:18:39;;;;;;;7.28;3.95;;;6.70;99.90;;;;;;5008619;28;20478;-64
2021/11/24 04:21:05;;;;;;;5.30;3.65;;;6.60;99.90;;;;;;5017443;28;20033;-64
2021/11/24 04:23:31;;;;;;;6.93;3.70;;;6.70;99.90;;;;;;5027554;28;20029;-64
2021/11/24 04:25:56;;;;;;;5.05;3.20;;;6.70;99.90;;;;;;5003389;28;20140;-64
2021/11/24 04:28:22;;;;;;;5.47;3.65;;;6.70;99.90;;;;;;5023792;28;20124;-64
2021/11/24 04:30:48;;;;;;;4.40;3.92;;;6.60;99.90;;;;;;5020125;28;20041;-64
2021/11/24 04:33:14;;;;;;;4.95;3.72;;;6.70;99.90;;;;;;5025074;28;20474;-64
2021/11/24 04:35:40;;;;;;;5.15;3.92;;;6.70;99.90;;;;;;5000647;28;20124;-64
2021/11/24 04:38:06;;;;;;;5.75;3.40;;;6.70;99.90;;;;;;5025036;28;20128;-65
2021/11/24 04:40:32;;;;;;;5.35;3.47;;;6.60;99.90;;;;;;5022913;28;20046;-64
2021/11/24 04:43:01;;;;;;;4.18;3.53;;;6.60;99.90;;;;;;5004666;28;20041;-64
2021/11/24 04:45:27;;;;;;;5.28;3.80;;;6.70;99.90;;;;;;5005908;28;20057;-64
2021/11/24 04:47:53;;;;;;;11.23;4.00;;;6.70;99.90;;;;;;5029286;28;20072;-64
2021/11/24 04:50:19;;;;;;;5.53;3.47;;;6.70;99.90;;;;;;5022854;28;20557;-65
2021/11/24 04:52:45;;;;;;;2.92;2.60;;;6.70;99.90;;;;;;5025515;28;20044;-65
2021/11/24 04:55:11;;;;;;;4.75;2.75;;;6.70;99.90;;;;;;5027050;28;20042;-65
2021/11/24 04:57:37;;;;;;;4.40;3.00;;;6.70;99.90;;;;;;5023871;28;20040;-65
2021/11/24 05:00:09;;;;;;;5.68;3.53;;;6.70;99.90;;;;;;5013726;28;20397;-65
2021/11/24 05:02:35;;;;;;;8.98;2.80;;;6.70;99.90;;;;;;5021370;28;20485;-65
2021/11/24 05:05:01;;;;;;;4.10;2.90;;;6.60;99.90;;;;;;5026591;28;20073;-65
2021/11/24 05:07:27;;;;;;;6.68;3.75;;;6.70;99.90;;;;;;5005636;28;20061;-65
2021/11/24 05:09:52;;;;;;;4.97;2.88;;;6.70;99.90;;;;;;5014441;28;20102;-65
2021/11/24 05:12:18;;;;;;;6.78;3.75;;;6.70;99.90;;;;;;5021970;28;20040;-65
2021/11/24 05:14:47;;;;;;;9.13;3.17;;;6.70;99.90;;;;;;5030608;28;20061;-65
2021/11/24 05:17:15;;;;;;;5.97;3.03;;;6.70;99.90;;;;;;5023231;28;20409;-65
2021/11/24 05:19:46;;;;;;;7.47;3.10;;;6.60;99.90;;;;;;5013185;28;20123;-65
2021/11/24 05:22:12;;;;;;;6.90;3.83;;;6.70;99.90;;;;;;5018368;28;20090;-65
2021/11/24 05:24:38;;;;;;;8.10;3.83;;;6.60;99.90;;;;;;5028518;28;20533;-66
2021/11/24 05:27:04;;;;;;;6.75;3.22;;;6.60;99.90;;;;;;5024120;28;20034;-66
2021/11/24 05:29:30;;;;;;;4.15;2.72;;;6.60;99.90;;;;;;5026119;28;20497;-65
2021/11/24 05:31:56;;;;;;;6.40;3.10;;;6.60;99.90;;;;;;5024959;28;20056;-66
2021/11/24 05:34:22;;;;;;;4.72;2.67;;;6.60;99.90;;;;;;5031025;28;20037;-65
2021/11/24 05:36:48;;;;;;;3.40;2.67;;;6.60;99.90;;;;;;5029856;28;20453;-65
2021/11/24 05:39:14;;;;;;;3.53;2.10;;;6.60;99.90;;;;;;5002804;28;20045;-66
2021/11/24 05:41:41;;;;;;;5.47;2.50;;;6.60;99.90;;;;;;5028834;28;20414;-66
2021/11/24 05:44:25;;;;;;;5.55;2.35;;;6.70;99.90;;;;;;5025782;28;20061;-65
2021/11/24 05:46:59;;;;;;;5.22;2.65;;;6.60;99.90;;;;;;5027328;28;20042;-65
2021/11/24 05:49:26;;;;;;;5.70;2.78;;;6.60;99.90;;;;;;5020693;28;20060;-65
2021/11/24 05:51:53;;;;;;;4.40;2.63;;;6.60;99.90;;;;;;5029332;28;20030;-65
2021/11/24 05:54:19;;;;;;;5.28;2.72;;;6.60;99.90;;;;;;4980775;28;20049;-65
2021/11/24 05:56:45;;;;;;;7.75;2.63;;;6.70;99.90;;;;;;5024610;28;20095;-65
2021/11/24 05:59:13;;;;;;;5.22;2.30;;;6.60;99.90;;;;;;5001798;28;20056;-64
2021/11/24 06:01:39;;;;;;;5.15;2.25;;;6.60;99.90;;;;;;5029552;28;20388;-64
2021/11/24 06:04:05;;;;;;;5.72;2.25;;;6.60;99.90;;;;;;5025670;28;20148;-64
2021/11/24 06:06:34;;;;;;;3.85;1.70;;;6.60;99.90;;;;;;5028030;28;20041;-64
2021/11/24 06:09:00;;;;;;;3.38;1.60;;;6.60;99.90;;;;;;5004919;28;20080;-64
2021/11/24 06:11:25;;;;;;;3.78;1.92;;;6.60;99.90;;;;;;5030663;28;20037;-64
2021/11/24 06:13:52;;;;;;;6.70;2.50;;;6.60;99.90;;;;;;5005166;28;20056;-65
2021/11/24 06:16:17;;;;;;;4.85;2.00;;;6.60;99.90;;;;;;5024169;28;20116;-64
2021/11/24 06:18:43;;;;;;;4.25;1.92;;;6.60;99.90;;;;;;5026242;28;20521;-65
2021/11/24 06:21:09;;;;;;;4.95;1.73;;;6.70;99.90;;;;;;5027757;28;20045;-64
2021/11/24 06:23:39;;;;;;;4.53;2.08;;;6.70;99.90;;;;;;5025634;28;20039;-64
2021/11/24 06:26:08;;;;;;;3.05;2.00;;;6.60;99.90;;;;;;5005234;28;20054;-64
2021/11/24 06:28:34;;;;;;;4.97;2.17;;;6.60;99.90;;;;;;5026827;28;20045;-64
2021/11/24 06:31:01;;;;;;;4.32;2.13;;;6.60;99.90;;;;;;5024131;28;20067;-65
2021/11/24 06:33:27;;;;;;;3.65;2.00;;;6.60;99.90;;;;;;5026975;28;20046;-64
2021/11/24 06:35:54;;;;;;;5.93;2.30;;;6.60;99.90;;;;;;5020635;28;20045;-64
2021/11/24 06:38:23;;;;;;;5.97;1.88;;;6.70;99.90;;;;;;5029309;28;20034;-64
2021/11/24 06:40:49;;;;;;;7.63;2.10;;;6.60;99.90;;;;;;5021591;28;20037;-64
2021/11/24 06:43:15;;;;;;;3.60;2.20;;;6.60;99.90;;;;;;5021293;28;20029;-64
2021/11/24 06:45:42;;;;;;;3.58;2.05;;;6.60;99.90;;;;;;5015044;28;20435;-64
2021/11/24 06:48:08;;;;;;;3.42;1.75;;;6.60;99.90;;;;;;5010031;28;20690;-64
2021/11/24 06:50:35;;;;;;;4.35;1.77;;;6.60;99.90;;;;;;5014813;28;20559;-64
2021/11/24 06:53:01;;;;;;;4.00;2.30;;;6.60;99.90;;;;;;5026358;28;20560;-64
2021/11/24 06:55:27;;;;;;;4.28;1.50;;;6.60;99.90;;;;;;5020354;28;20048;-65
2021/11/24 06:57:53;;;;;;;4.05;1.80;;;6.50;99.90;;;;;;5019902;28;20044;-66
2021/11/24 07:00:19;;;;;;;2.50;1.63;;;6.60;99.90;;;;;;5000943;28;20042;-66
2021/11/24 07:02:45;;;;;;;3.30;1.80;;;6.60;99.90;;;;;;5028821;28;20046;-66
2021/11/24 07:05:12;;;;;;;5.22;2.08;;;6.60;99.90;;;;;;5023764;28;20041;-66
2021/11/24 07:07:38;;;;;;;3.65;1.80;;;6.60;99.90;;;;;;5017371;28;20494;-64
2021/11/24 07:10:05;;;;;;;3.13;1.70;;;6.60;99.90;;;;;;5006208;28;20052;-66
2021/11/24 07:12:30;;;;;;;2.63;1.70;;;6.60;99.90;;;;;;5016589;28;20429;-64
2021/11/24 07:14:57;;;;;;;6.60;1.83;;;6.60;99.90;;;;;;5023480;28;20049;-64
2021/11/24 07:17:23;;;;;;;3.20;1.70;;;6.60;99.90;;;;;;5024127;28;20034;-64
2021/11/24 07:19:49;;;;;;;2.42;1.40;;;6.60;99.90;;;;;;5008455;28;20065;-64
2021/11/24 07:22:15;;;;;;;5.30;1.50;;;6.60;99.90;;;;;;5020952;28;20106;-64
2021/11/24 07:24:41;;;;;;;5.25;1.55;;;6.60;99.90;;;;;;5024052;28;20221;-64
2021/11/24 07:27:07;;;;;;;7.53;1.58;;;6.60;99.90;;;;;;5023080;28;20072;-64
2021/11/24 07:29:32;;;;;;;4.82;1.67;;;6.60;99.90;;;;;;5005096;28;20045;-64
2021/11/24 07:31:59;;;;;;;2.78;1.52;;;6.60;99.90;;;;;;5020492;28;20038;-64
2021/11/24 07:34:24;;;;;;;3.30;1.60;;;6.60;99.90;;;;;;5028865;28;20477;-64
2021/11/24 07:36:50;;;;;;;3.50;1.50;;;6.60;99.90;;;;;;5022262;28;20052;-64
2021/11/24 07:39:16;;;;;;;2.28;1.20;;;6.60;99.90;;;;;;5023292;28;20471;-65
2021/11/24 07:41:42;;;;;;;2.42;1.35;;;6.60;99.90;;;;;;5020634;28;20073;-65
2021/11/24 07:44:07;;;;;;;4.03;1.30;;;6.60;99.90;;;;;;5020620;28;20047;-65
2021/11/24 07:46:33;;;;;;;4.68;1.63;;;6.70;99.90;;;;;;5027250;28;20568;-65
2021/11/24 07:48:59;;;;;;;4.25;1.20;;;6.70;99.90;;;;;;5001264;28;20071;-65
2021/11/24 07:51:25;;;;;;;6.05;1.48;;;6.60;99.90;;;;;;5029221;28;20041;-65
2021/11/24 07:53:51;;;;;;;1.77;1.30;;;6.60;99.90;;;;;;5021499;28;20037;-65
2021/11/24 07:56:17;;;;;;;3.67;1.60;;;6.70;99.90;;;;;;5025041;28;20456;-65
2021/11/24 07:58:43;;;;;;;4.45;1.52;;;6.70;99.90;;;;;;5003292;28;20045;-65
2021/11/24 08:01:10;;;;;;;1.75;1.30;;;6.70;99.90;;;;;;5008960;28;20129;-65
2021/11/24 08:03:36;;;;;;;3.55;1.30;;;6.70;99.90;;;;;;5019779;28;20044;-65
2021/11/24 08:06:02;;;;;;;5.88;1.23;;;6.70;99.90;;;;;;5021847;28;20505;-65
2021/11/24 08:08:27;;;;;;;3.58;1.20;;;6.70;99.90;;;;;;5022701;28;20037;-65
2021/11/24 08:10:53;;;;;;;1.35;1.00;;;6.70;99.90;;;;;;5024254;28;20044;-65
2021/11/24 08:13:21;;;;;;;2.78;1.40;;;6.80;99.90;;;;;;5002111;28;20491;-65
2021/11/24 08:15:50;;;;;;;2.65;1.50;;;6.70;99.90;;;;;;5010963;28;20388;-65
2021/11/24 08:18:16;;;;;;;3.95;1.80;;;6.80;99.90;;;;;;5022043;28;20037;-65
2021/11/24 08:20:42;;;;;;;5.85;2.15;;;6.80;99.90;;;;;;5026565;28;20030;-65
2021/11/24 08:23:08;;;;;;;5.25;3.20;;;6.80;99.90;;;;;;5031864;28;20041;-65
2021/11/24 08:25:34;;;;;;;4.68;2.90;;;6.90;99.90;;;;;;5025532;28;20034;-65
2021/11/24 08:28:00;;;;;;;7.65;3.70;;;6.90;99.90;;;;;;5030612;28;20438;-65
2021/11/24 08:30:26;;;;;;;6.68;3.20;;;6.90;99.90;;;;;;5007167;28;20195;-65
2021/11/24 08:32:53;;;;;;;9.60;3.60;;;6.90;99.90;;;;;;5031192;28;20482;-65
2021/11/24 08:35:20;;;;;;;9.45;3.25;;;7.00;99.90;;;;;;5026944;28;20601;-65
2021/11/24 08:37:47;;;;;;;6.38;3.58;;;6.90;99.90;;;;;;5010868;28;20049;-65
2021/11/24 08:40:13;;;;;;;5.22;2.95;;;7.00;99.90;;;;;;5019084;28;20045;-65
2021/11/24 08:42:40;;;;;;;5.35;2.95;;;7.00;99.90;;;;;;5024504;28;20486;-65
2021/11/24 08:45:08;;;;;;;9.82;3.13;;;7.00;99.90;;;;;;5021203;28;20048;-65
2021/11/24 08:47:34;;;;;;;9.15;3.08;;;7.10;99.90;;;;;;5025225;28;20055;-65
2021/11/24 08:50:00;;;;;;;4.60;2.67;;;7.00;99.90;;;;;;5025894;28;20064;-65
2021/11/24 08:52:26;;;;;;;4.88;2.70;;;7.10;99.90;;;;;;5026014;28;20040;-65
2021/11/24 08:54:52;;;;;;;5.85;2.95;;;7.10;99.90;;;;;;5004266;28;20049;-65
2021/11/24 08:57:18;;;;;;;4.78;2.25;;;7.10;99.90;;;;;;5028001;28;20049;-65
2021/11/24 08:59:44;;;;;;;3.63;2.30;;;7.20;99.90;;;;;;5029959;28;20053;-65
2021/11/24 09:02:09;;;;;;;5.90;2.50;;;7.20;99.90;;;;;;5021225;28;20428;-65
2021/11/24 09:04:36;;;;;;;3.15;2.25;;;7.20;99.90;;;;;;5028464;28;20502;-65
2021/11/24 09:07:02;;;;;;;3.50;2.22;;;7.20;99.90;;;;;;5022905;28;20386;-64
2021/11/24 09:09:28;;;;;;;4.60;2.70;;;7.30;99.90;;;;;;5027180;28;20080;-64
2021/11/24 09:11:54;;;;;;;4.47;2.38;;;7.30;99.90;;;;;;5019232;28;20080;-64
2021/11/24 09:14:20;;;;;;;4.90;2.50;;;7.30;99.90;;;;;;5030862;28;20053;-64
2021/11/24 09:16:46;;;;;;;3.80;2.35;;;7.30;99.90;;;;;;5023133;28;20045;-65
2021/11/24 09:19:12;;;;;;;3.65;2.80;;;7.40;99.90;;;;;;5026505;28;20033;-65
2021/11/24 09:21:39;;;;;;;4.00;2.72;;;7.40;99.90;;;;;;5004471;28;20115;-65
2021/11/24 09:24:11;;;;;;;3.00;2.70;;;7.40;99.90;;;;;;5031211;28;20059;-65
2021/11/24 09:26:49;;;;;;;4.32;3.20;;;7.40;99.90;;;;;;5002430;28;20053;-65
2021/11/24 09:29:15;;;;;;;4.97;3.17;;;7.50;99.90;;;;;;5024584;28;20045;-65
2021/11/24 09:31:41;;;;;;;6.70;4.15;;;7.50;99.90;;;;;;5020338;28;20049;-65
2021/11/24 09:34:07;;;;;;;4.60;3.15;;;7.60;99.90;;;;;;5029630;28;20045;-66
2021/11/24 09:36:34;;;;;;;5.05;3.50;;;7.60;99.90;;;;;;5023613;28;20125;-66
2021/11/24 09:39:00;;;;;;;5.30;3.75;;;7.60;99.90;;;;;;5028680;28;20044;-66
2021/11/24 09:41:27;;;;;;;4.18;3.30;;;7.60;99.90;;;;;;5024994;28;20040;-66
2021/11/24 09:43:55;;;;;;;4.60;3.10;;;7.60;99.90;;;;;;5026902;28;20041;-66
2021/11/24 09:46:24;;;;;;;5.45;3.88;;;7.60;99.90;;;;;;5010448;28;20065;-66
2021/11/24 09:48:50;;;;;;;5.03;3.83;;;7.70;99.90;;;;;;5001580;28;20056;-66
2021/11/24 09:51:19;;;;;;;5.88;3.60;;;7.70;99.90;;;;;;5011718;28;20053;-66
2021/11/24 09:53:46;;;;;;;6.32;4.00;;;7.70;99.90;;;;;;5019385;28;20037;-66
2021/11/24 09:56:12;;;;;;;7.25;4.88;;;7.80;99.90;;;;;;5025009;28;20732;-66
2021/11/24 09:58:38;;;;;;;4.30;3.60;;;7.80;99.90;;;;;;5022487;28;20073;-66
2021/11/24 10:01:04;;;;;;;5.43;3.50;;;7.80;99.90;;;;;;5010436;28;20503;-66
2021/11/24 10:03:31;;;;;;;5.47;3.60;;;7.80;99.90;;;;;;5001451;28;20084;-66
2021/11/24 10:05:57;;;;;;;6.70;3.65;;;7.80;99.90;;;;;;5027136;28;20045;-66
2021/11/24 10:08:24;;;;;;;5.57;3.80;;;7.90;99.90;;;;;;5022112;28;20168;-66
2021/11/24 10:10:50;;;;;;;7.35;3.80;;;7.90;99.90;;;;;;5027789;28;20041;-66
2021/11/24 10:13:16;;;;;;;4.68;3.78;;;7.90;99.90;;;;;;5019077;28;20462;-66
2021/11/24 10:15:47;;;;;;;7.20;3.33;;;7.90;99.90;;;;;;5026171;28;20041;-66
2021/11/24 10:18:32;;;;;;;4.00;3.58;;;7.90;99.90;;;;;;5021775;28;23370;-66
2021/11/24 10:21:09;;;;;;;4.68;4.13;;;7.90;99.90;;;;;;5009267;28;20064;-66
2021/11/24 10:23:41;;;;;;;6.40;4.85;;;8.00;99.90;;;;;;5018987;28;20029;-66
2021/11/24 10:26:28;;;;;;;6.22;4.07;;;8.00;99.90;;;;;;5029838;28;20095;-66
2021/11/24 10:28:59;;;;;;;8.07;4.90;;;8.00;99.90;;;;;;5021272;28;20394;-66
2021/11/24 10:31:33;;;;;;;4.60;4.18;;;8.00;99.90;;;;;;5012239;28;20041;-66
2021/11/24 10:34:00;;;;;;;7.32;5.35;;;8.00;99.90;;;;;;5021518;28;20377;-66
2021/11/24 10:36:27;;;;;;;8.32;5.68;;;8.00;99.90;;;;;;5011545;28;20500;-66
2021/11/24 10:38:53;;;;;;;7.03;5.30;;;8.00;99.90;;;;;;5023296;28;20038;-66
2021/11/24 10:41:29;;;;;;;5.30;3.80;;;8.00;99.90;;;;;;5023034;28;20037;-66
2021/11/24 10:43:54;;;;;;;6.53;4.45;;;8.00;99.90;;;;;;5022261;28;20072;-66
2021/11/24 10:46:26;;;;;;;5.10;4.60;;;8.00;99.90;;;;;;5026437;28;20068;-66
2021/11/24 10:49:09;;;;;;;5.95;3.63;;;8.00;99.90;;;;;;5006158;28;20049;-66
2021/11/24 10:51:39;;;;;;;5.97;3.75;;;8.10;99.90;;;;;;5026110;28;20124;-66
2021/11/24 10:54:10;;;;;;;5.05;4.13;;;8.10;99.90;;;;;;5026151;28;20041;-64
2021/11/24 10:57:03;;;;;;;7.53;4.30;;;8.10;99.90;;;;;;5003405;28;20136;-66
2021/11/24 10:59:31;;;;;;;4.72;3.95;;;8.10;99.90;;;;;;5025480;28;20072;-66
2021/11/24 11:02:26;;;;;;;5.45;3.50;;;8.10;99.90;;;;;;5025500;28;20037;-64
2021/11/24 11:04:57;;;;;;;5.05;3.85;;;8.10;99.90;;;;;;5002418;28;20053;-64
2021/11/24 11:07:23;;;;;;;3.63;3.25;;;8.10;99.90;;;;;;5022514;28;20033;-66
2021/11/24 11:10:18;;;;;;;5.18;3.50;;;8.10;99.90;;;;;;5010452;28;20049;-66
2021/11/24 11:12:47;;;;;;;5.32;3.55;;;8.10;99.90;;;;;;5024972;28;20132;-66
2021/11/24 11:15:20;;;;;;;5.25;3.70;;;8.10;99.90;;;;;;5021528;28;20376;-66
2021/11/24 11:17:48;;;;;;;5.78;3.85;;;8.10;99.90;;;;;;5022288;28;20037;-66
2021/11/24 11:20:14;;;;;;;5.80;3.60;;;8.10;99.90;;;;;;5023541;28;20102;-67
2021/11/24 11:22:39;;;;;;;5.15;3.70;;;8.20;99.90;;;;;;4986767;28;20049;-67
2021/11/24 11:25:06;;;;;;;5.05;3.58;;;8.20;99.90;;;;;;5024948;28;20492;-67
2021/11/24 11:27:33;;;;;;;5.13;3.47;;;8.20;99.90;;;;;;5019822;28;20091;-67
2021/11/24 11:30:00;;;;;;;3.60;3.13;;;8.20;99.90;;;;;;5025401;28;20041;-66
2021/11/24 11:32:28;;;;;;;3.90;3.40;;;8.20;99.90;;;;;;5023313;28;20041;-67
2021/11/24 11:34:53;;;;;;;5.55;3.42;;;8.10;99.90;;;;;;5022864;28;20049;-67
2021/11/24 11:37:20;;;;;;;5.07;3.25;;;8.20;99.90;;;;;;5018647;28;20498;-66
2021/11/24 11:39:46;;;;;;;3.42;3.13;;;8.20;99.90;;;;;;5029465;28;20052;-67
2021/11/24 11:42:14;;;;;;;4.63;3.88;;;8.20;99.90;;;;;;4982613;28;20050;-65
2021/11/24 11:44:40;;;;;;;3.92;3.25;;;8.20;99.90;;;;;;5022732;28;20033;-65
2021/11/24 11:47:05;;;;;;;4.28;2.90;;;8.30;99.90;;;;;;5020066;28;20045;-65
2021/11/24 11:49:31;;;;;;;4.82;3.03;;;8.30;99.90;;;;;;5024575;28;20054;-65
2021/11/24 11:52:09;;;;;;;3.75;2.70;;;8.30;99.90;;;;;;5019679;28;20071;-65
2021/11/24 11:54:35;;;;;;;5.18;2.70;;;8.20;99.90;;;;;;5022481;28;20175;-65
2021/11/24 11:57:04;;;;;;;4.03;2.70;;;8.30;99.90;;;;;;5015067;28;21200;-65
2021/11/24 11:59:33;;;;;;;4.13;2.78;;;8.20;99.90;;;;;;5004757;28;20234;-65
2021/11/24 12:02:10;;;;;;;3.63;2.90;;;8.20;99.90;;;;;;5019601;28;20052;-65
2021/11/24 12:04:47;;;;;;;3.45;2.75;;;8.30;99.90;;;;;;5026705;28;20037;-65
2021/11/24 12:07:19;;;;;;;5.32;2.65;;;8.20;99.90;;;;;;5019656;28;20401;-65
2021/11/24 12:09:54;;;;;;;5.22;2.58;;;8.20;99.90;;;;;;5023811;28;20068;-65
2021/11/24 12:12:23;;;;;;;5.45;3.20;;;8.30;99.90;;;;;;5018920;28;20065;-66
2021/11/24 12:15:27;;;;;;;4.78;3.08;;;8.20;99.90;;;;;;5025004;28;20405;-65
2021/11/24 12:17:56;;;;;;;4.85;2.78;;;8.20;99.90;;;;;;4978372;28;20069;-65
2021/11/24 12:20:23;;;;;;;4.10;3.10;;;8.20;99.90;;;;;;5010186;28;20190;-65
2021/11/24 12:22:56;;;;;;;3.70;3.05;;;8.20;99.90;;;;;;5021618;28;20048;-65
2021/11/24 12:25:28;;;;;;;4.15;2.83;;;8.30;99.90;;;;;;5007126;28;20049;-65
2021/11/24 12:27:54;;;;;;;3.47;2.85;;;8.30;99.90;;;;;;5024876;28;20120;-66
2021/11/24 12:33:17;;;;;;;3.95;2.50;;;8.30;99.90;;;;;;5021996;28;20132;-65
2021/11/24 12:35:53;;;;;;;3.33;2.42;;;8.30;99.90;;;;;;5020542;28;20115;-65
2021/11/24 12:38:20;;;;;;;4.70;2.90;;;8.30;99.90;;;;;;5019695;28;20053;-65
2021/11/24 12:40:49;;;;;;;4.03;3.05;;;8.30;99.90;;;;;;5021957;28;20574;-65
2021/11/24 12:43:17;;;;;;;5.78;2.92;;;8.30;99.90;;;;;;4988961;28;20104;-65
2021/11/24 12:46:01;;;;;;;4.05;2.78;;;8.30;99.90;;;;;;5014818;28;20095;-65
2021/11/24 12:48:52;;;;;;;3.33;2.53;;;8.40;99.90;;;;;;4990038;28;20103;-65
2021/11/24 12:51:47;;;;;;;4.60;2.83;;;8.40;99.90;;;;;;4999049;28;20046;-65
2021/11/24 12:54:27;;;;;;;5.78;2.67;;;8.40;99.90;;;;;;5017973;28;20084;-65
2021/11/24 12:56:58;;;;;;;4.03;2.70;;;8.40;99.90;;;;;;5023498;28;20056;-65
2021/11/24 12:59:35;;;;;;;4.78;2.92;;;8.40;99.90;;;;;;5003047;28;20262;-66
2021/11/24 13:02:09;;;;;;;4.07;2.85;;;8.30;99.90;;;;;;5025077;28;20048;-66